createdAt,value
2023-04-07T00:01:37.642Z,6.30
2023-04-07T00:04:05.641Z,6.20
2023-04-07T00:06:33.650Z,5.50
2023-04-07T00:09:01.539Z,5.70
2023-04-07T00:11:29.430Z,5.90
2023-04-07T00:13:58.686Z,5.50
2023-04-07T00:16:26.688Z,5.40
2023-04-07T00:18:54.617Z,5.40
2023-04-07T00:21:22.533Z,6.00
2023-04-07T00:23:50.573Z,5.60
2023-04-07T00:26:18.459Z,5.40
2023-04-07T00:28:46.350Z,5.90
2023-04-07T00:31:15.816Z,5.30
2023-04-07T00:33:43.674Z,5.70
2023-04-07T00:36:11.606Z,5.20
2023-04-07T00:38:39.484Z,5.10
2023-04-07T00:41:07.378Z,5.10
2023-04-07T00:43:35.596Z,5.10
2023-04-07T00:46:04.119Z,5.00
2023-04-07T00:48:33.394Z,6.60
2023-04-07T00:51:01.312Z,6.20
2023-04-07T00:53:29.964Z,4.90
2023-04-07T00:55:57.930Z,6.00
2023-04-07T00:58:25.877Z,5.20
2023-04-07T01:01:01.325Z,5.90
2023-04-07T01:03:35.721Z,6.30
2023-04-07T01:06:06.708Z,5.60
2023-04-07T01:08:52.910Z,4.70
2023-04-07T01:11:26.365Z,5.90
2023-04-07T01:13:56.236Z,6.40
2023-04-07T01:16:31.162Z,4.70
2023-04-07T01:19:07.836Z,5.30
2023-04-07T01:21:38.097Z,4.70
2023-04-07T01:24:21.536Z,5.80
2023-04-07T01:26:51.416Z,5.20
2023-04-07T01:29:36.207Z,4.60
2023-04-07T01:32:08.050Z,6.50
2023-04-07T01:34:38.198Z,5.80
2023-04-07T01:37:07.598Z,4.50
2023-04-07T01:39:36.987Z,6.00
2023-04-07T01:42:06.194Z,5.80
2023-04-07T01:44:36.377Z,5.60
2023-04-07T01:47:05.847Z,5.80
2023-04-07T01:49:34.750Z,4.50
2023-04-07T01:52:03.350Z,5.60
2023-04-07T01:54:31.960Z,4.50
2023-04-07T01:56:59.843Z,4.50
2023-04-07T01:59:27.724Z,5.70
2023-04-07T02:01:57.034Z,6.30
2023-04-07T02:04:31.984Z,5.00
2023-04-07T02:07:02.854Z,5.50
2023-04-07T02:09:33.065Z,4.90
2023-04-07T02:12:06.077Z,5.00
2023-04-07T02:14:34.951Z,5.30
2023-04-07T02:17:05.872Z,6.30
2023-04-07T02:19:34.693Z,5.30
2023-04-07T02:22:04.026Z,5.40
2023-04-07T02:24:32.138Z,6.70
2023-04-07T02:27:01.574Z,5.50
2023-04-07T02:29:29.563Z,6.90
2023-04-07T02:31:57.513Z,6.40
2023-04-07T02:34:26.709Z,7.00
2023-04-07T02:36:54.665Z,7.10
2023-04-07T02:39:22.566Z,7.00
2023-04-07T02:41:50.434Z,6.30
2023-04-07T02:44:18.287Z,5.30
2023-04-07T02:46:46.339Z,5.30
2023-04-07T02:49:14.185Z,6.30
2023-04-07T02:51:43.377Z,5.20
2023-04-07T02:54:11.230Z,5.20
2023-04-07T02:56:39.078Z,5.10
2023-04-07T02:59:07.199Z,6.60
2023-04-07T03:01:36.298Z,5.50
2023-04-07T03:04:04.405Z,5.00
2023-04-07T03:06:33.372Z,6.00
2023-04-07T03:09:02.739Z,5.00
2023-04-07T03:11:30.766Z,5.50
2023-04-07T03:13:58.619Z,4.90
2023-04-07T03:16:26.543Z,4.90
2023-04-07T03:18:54.395Z,5.40
2023-04-07T03:21:22.235Z,4.80
2023-04-07T03:23:50.564Z,4.80
2023-04-07T03:26:19.795Z,5.90
2023-04-07T03:28:47.750Z,4.70
2023-04-07T03:31:15.923Z,4.60
2023-04-07T03:33:43.872Z,4.60
2023-04-07T03:36:12.149Z,4.60
2023-04-07T03:38:40.236Z,6.30
2023-04-07T03:41:08.092Z,5.50
2023-04-07T03:43:37.298Z,6.30
2023-04-07T03:46:05.325Z,4.50
2023-04-07T03:48:33.247Z,4.70
2023-04-07T03:51:01.716Z,5.40
2023-04-07T03:53:29.648Z,4.50
2023-04-07T03:55:57.614Z,5.50
2023-04-07T03:58:25.745Z,5.90
2023-04-07T04:00:55.031Z,4.50
2023-04-07T04:03:23.148Z,4.50
2023-04-07T04:05:51.178Z,6.10
2023-04-07T04:08:19.039Z,6.20
2023-04-07T04:10:46.958Z,4.90
2023-04-07T04:13:14.870Z,4.40
2023-04-07T04:15:43.605Z,4.40
2023-04-07T04:18:12.869Z,5.60
2023-04-07T04:20:41.092Z,4.30
2023-04-07T04:23:08.987Z,4.30
2023-04-07T04:25:39.419Z,4.30
2023-04-07T04:28:07.327Z,4.30
2023-04-07T04:30:35.367Z,6.40
2023-04-07T04:33:03.355Z,6.00
2023-04-07T04:35:32.739Z,4.30
2023-04-07T04:38:00.701Z,4.30
2023-04-07T04:40:28.621Z,6.10
2023-04-07T04:42:56.476Z,5.70
2023-04-07T04:45:24.338Z,4.20
2023-04-07T04:47:52.181Z,6.10
2023-04-07T04:50:20.823Z,4.10
2023-04-07T04:52:50.157Z,4.10
2023-04-07T04:55:18.240Z,4.00
2023-04-07T04:57:46.288Z,4.00
2023-04-07T05:00:15.027Z,4.00
2023-04-07T05:02:43.358Z,4.00
2023-04-07T05:05:11.552Z,3.90
2023-04-07T05:07:40.386Z,4.20
2023-04-07T05:10:10.452Z,3.90
2023-04-07T05:12:38.365Z,4.00
2023-04-07T05:15:07.367Z,5.30
2023-04-07T05:17:35.246Z,3.80
2023-04-07T05:20:03.863Z,3.90
2023-04-07T05:22:31.930Z,3.90
2023-04-07T05:24:59.780Z,3.90
2023-04-07T05:27:29.007Z,3.90
2023-04-07T05:29:56.881Z,5.70
2023-04-07T05:32:24.826Z,3.80
2023-04-07T05:34:52.686Z,4.50
2023-04-07T05:37:20.566Z,3.80
2023-04-07T05:39:48.538Z,3.80
2023-04-07T05:42:16.387Z,3.80
2023-04-07T05:44:45.620Z,3.90
2023-04-07T05:47:13.486Z,3.90
2023-04-07T05:49:45.855Z,4.10
2023-04-07T05:52:13.765Z,5.00
2023-04-07T05:54:41.757Z,4.30
2023-04-07T05:57:09.994Z,4.50
2023-04-07T05:59:37.900Z,4.80
2023-04-07T06:02:07.227Z,5.00
2023-04-07T06:04:35.464Z,6.90
2023-04-07T06:07:03.616Z,6.70
2023-04-07T06:09:31.555Z,5.70
2023-04-07T06:12:01.235Z,5.90
2023-04-07T06:14:29.151Z,6.80
2023-04-07T06:16:57.084Z,6.40
2023-04-07T06:19:27.426Z,7.30
2023-04-07T06:21:55.504Z,6.90
2023-04-07T06:24:25.155Z,7.00
2023-04-07T06:26:53.463Z,7.90
2023-04-07T06:29:21.566Z,8.50
2023-04-07T06:31:49.422Z,7.50
2023-04-07T06:34:17.765Z,7.70
2023-04-07T06:36:47.074Z,7.80
2023-04-07T06:39:15.625Z,7.90
2023-04-07T06:41:47.149Z,8.00
2023-04-07T06:44:17.530Z,8.10
2023-04-07T06:46:47.444Z,8.00
2023-04-07T06:49:17.532Z,7.90
2023-04-07T06:51:47.029Z,8.00
2023-04-07T06:54:15.403Z,8.00
2023-04-07T06:56:44.899Z,8.10
2023-04-07T06:59:13.195Z,8.20
2023-04-07T07:01:42.102Z,8.20
2023-04-07T07:04:10.142Z,8.40
2023-04-07T07:06:38.035Z,8.60
2023-04-07T07:09:07.339Z,8.70
2023-04-07T07:11:35.506Z,8.80
2023-04-07T07:14:03.354Z,8.90
2023-04-07T07:16:31.236Z,9.10
2023-04-07T07:18:59.101Z,9.40
2023-04-07T07:21:27.788Z,9.70
2023-04-07T07:23:56.402Z,10.30
2023-04-07T07:26:26.235Z,10.40
2023-04-07T07:28:54.137Z,10.40
2023-04-07T07:31:22.120Z,10.60
2023-04-07T07:33:51.705Z,12.20
2023-04-07T07:36:20.195Z,10.80
2023-04-07T07:38:48.148Z,10.80
2023-04-07T07:41:16.047Z,10.90
2023-04-07T07:43:45.504Z,12.70
2023-04-07T07:46:13.647Z,10.70
2023-04-07T07:48:41.794Z,10.60
2023-04-07T07:51:10.538Z,10.80
2023-04-07T07:53:38.675Z,11.30
2023-04-07T07:56:06.571Z,11.10
2023-04-07T07:58:34.476Z,11.30
2023-04-07T08:01:03.826Z,12.50
2023-04-07T08:03:31.838Z,12.20
2023-04-07T08:05:59.941Z,11.40
2023-04-07T08:08:27.817Z,12.10
2023-04-07T08:10:55.660Z,11.50
2023-04-07T08:13:23.702Z,11.80
2023-04-07T08:15:51.618Z,12.90
2023-04-07T08:18:20.988Z,12.50
2023-04-07T08:20:48.935Z,13.60
2023-04-07T08:23:16.965Z,13.60
2023-04-07T08:25:44.881Z,12.50
2023-04-07T08:28:12.768Z,12.30
2023-04-07T08:30:40.662Z,13.00
2023-04-07T08:33:08.623Z,12.30
2023-04-07T08:35:38.008Z,12.40
2023-04-07T08:38:06.103Z,12.60
2023-04-07T08:40:34.652Z,12.80
2023-04-07T08:43:09.309Z,13.70
2023-04-07T08:45:42.062Z,13.20
2023-04-07T08:48:17.569Z,14.30
2023-04-07T08:50:47.166Z,13.90
2023-04-07T08:53:17.617Z,14.30
2023-04-07T08:55:45.528Z,14.30
2023-04-07T08:58:15.517Z,13.30
2023-04-07T09:00:45.955Z,14.50
2023-04-07T09:03:14.704Z,13.70
2023-04-07T09:05:44.466Z,13.80
2023-04-07T09:08:13.781Z,14.90
2023-04-07T09:10:41.733Z,13.80
2023-04-07T09:13:09.798Z,13.70
2023-04-07T09:15:38.841Z,14.00
2023-04-07T09:18:07.332Z,13.90
2023-04-07T09:20:56.858Z,14.10
2023-04-07T09:23:34.364Z,14.20
2023-04-07T09:26:19.361Z,15.50
2023-04-07T09:28:50.460Z,14.10
2023-04-07T09:31:19.367Z,15.00
2023-04-07T09:33:47.465Z,13.40
2023-04-07T09:36:15.676Z,13.40
2023-04-07T09:38:46.082Z,13.40
2023-04-07T09:41:16.482Z,13.20
2023-04-07T09:43:46.751Z,13.30
2023-04-07T09:46:16.752Z,14.60
2023-04-07T09:48:46.005Z,13.00
2023-04-07T09:51:15.369Z,14.20
2023-04-07T09:53:50.355Z,13.00
2023-04-07T09:56:36.845Z,14.00
2023-04-07T09:59:05.676Z,13.20
2023-04-07T10:01:33.850Z,13.20
2023-04-07T10:04:02.030Z,13.60
2023-04-07T10:06:30.853Z,13.10
2023-04-07T10:09:19.099Z,13.20
2023-04-07T10:11:47.800Z,12.00
2023-04-07T10:14:17.142Z,14.20
2023-04-07T10:16:45.866Z,13.40
2023-04-07T10:19:15.365Z,14.70
2023-04-07T10:21:44.783Z,15.20
2023-04-07T10:24:27.435Z,13.90
2023-04-07T10:26:58.905Z,14.40
2023-04-07T10:29:27.602Z,14.90
2023-04-07T10:31:55.644Z,14.40
2023-04-07T10:34:59.393Z,12.80
2023-04-07T10:37:27.978Z,12.70
2023-04-07T10:40:32.287Z,12.40
2023-04-07T10:43:01.098Z,12.30
2023-04-07T10:45:56.180Z,12.30
2023-04-07T10:48:24.372Z,12.60
2023-04-07T10:51:17.369Z,14.50
2023-04-07T10:54:22.524Z,13.20
2023-04-07T10:57:10.198Z,13.40
2023-04-07T10:59:39.687Z,13.80
2023-04-07T11:02:32.569Z,14.00
2023-04-07T11:05:01.303Z,14.10
2023-04-07T11:07:50.049Z,14.60
2023-04-07T11:10:19.307Z,14.30
2023-04-07T11:13:04.769Z,14.60
2023-04-07T11:15:33.990Z,14.80
2023-04-07T11:18:19.393Z,14.40
2023-04-07T11:20:53.204Z,14.40
2023-04-07T11:23:23.128Z,15.60
2023-04-07T11:25:52.504Z,16.00
2023-04-07T11:28:21.808Z,15.90
2023-04-07T11:30:52.566Z,15.90
2023-04-07T11:33:22.255Z,14.90
2023-04-07T11:35:52.376Z,15.00
2023-04-07T11:38:21.162Z,16.80
2023-04-07T11:40:49.349Z,15.00
2023-04-07T11:43:18.518Z,15.00
2023-04-07T11:45:47.990Z,15.00
2023-04-07T11:48:28.688Z,15.00
2023-04-07T11:50:56.632Z,15.90
2023-04-07T11:53:29.023Z,16.00
2023-04-07T11:56:05.157Z,16.40
2023-04-07T11:58:33.404Z,16.50
2023-04-07T12:01:08.833Z,15.40
2023-04-07T12:03:38.304Z,16.10
2023-04-07T12:06:07.087Z,15.20
2023-04-07T12:08:42.151Z,15.30
2023-04-07T12:11:10.953Z,15.20
2023-04-07T12:13:39.040Z,15.20
2023-04-07T12:16:08.587Z,15.90
2023-04-07T12:18:36.535Z,15.10
2023-04-07T12:21:05.416Z,16.20
2023-04-07T12:23:33.335Z,15.30
2023-04-07T12:26:01.203Z,14.50
2023-04-07T12:28:29.199Z,15.80
2023-04-07T12:30:57.366Z,15.10
2023-04-07T12:33:26.652Z,14.90
2023-04-07T12:35:54.848Z,14.90
2023-04-07T12:38:22.914Z,16.10
2023-04-07T12:40:51.636Z,15.00
2023-04-07T12:43:19.559Z,15.20
2023-04-07T12:45:47.626Z,14.90
2023-04-07T12:48:16.266Z,15.60
2023-04-07T12:50:45.700Z,14.90
2023-04-07T12:53:13.695Z,14.80
2023-04-07T12:55:42.007Z,15.50
2023-04-07T12:58:10.118Z,16.10
2023-04-07T13:00:38.077Z,15.60
2023-04-07T13:03:06.117Z,15.00
2023-04-07T13:05:34.241Z,15.80
2023-04-07T13:08:03.493Z,15.80
2023-04-07T13:10:31.456Z,16.10
2023-04-07T13:12:59.355Z,15.90
2023-04-07T13:15:28.200Z,15.60
2023-04-07T13:17:56.322Z,15.40
2023-04-07T13:20:27.894Z,16.70
2023-04-07T13:25:30.126Z,15.40
2023-04-07T13:27:59.623Z,16.50
2023-04-07T13:30:27.632Z,16.00
2023-04-07T13:32:55.706Z,15.50
2023-04-07T13:35:23.755Z,16.30
2023-04-07T13:37:51.699Z,15.30
2023-04-07T13:40:19.751Z,16.00
2023-04-07T13:42:48.985Z,15.20
2023-04-07T13:45:16.950Z,15.70
2023-04-07T13:47:46.095Z,16.00
2023-04-07T13:50:14.062Z,15.10
2023-04-07T13:52:42.362Z,15.20
2023-04-07T13:55:11.226Z,15.10
2023-04-07T13:57:39.139Z,15.20
2023-04-07T14:00:09.822Z,15.30
2023-04-07T14:02:37.824Z,15.20
2023-04-07T14:05:06.156Z,16.20
2023-04-07T14:07:34.535Z,15.20
2023-04-07T14:10:02.446Z,15.20
2023-04-07T14:12:30.627Z,16.20
2023-04-07T14:14:58.570Z,15.80
2023-04-07T14:17:27.906Z,15.10
2023-04-07T14:19:55.901Z,15.50
2023-04-07T14:22:23.808Z,15.20
2023-04-07T14:24:51.988Z,15.20
2023-04-07T14:27:22.234Z,16.10
2023-04-07T14:29:50.254Z,15.10
2023-04-07T14:32:18.189Z,15.10
2023-04-07T14:34:47.852Z,15.00
2023-04-07T14:37:16.591Z,15.20
2023-04-07T14:39:55.328Z,16.00
2023-04-07T14:42:27.412Z,15.00
2023-04-07T14:44:55.652Z,15.40
2023-04-07T14:47:23.596Z,16.10
2023-04-07T14:49:53.599Z,14.90
2023-04-07T14:52:22.073Z,14.90
2023-04-07T14:54:50.128Z,15.70
2023-04-07T14:57:18.036Z,14.80
2023-04-07T14:59:45.983Z,15.50
2023-04-07T15:02:14.007Z,14.70
2023-04-07T15:04:42.038Z,15.60
2023-04-07T15:07:11.404Z,15.90
2023-04-07T15:09:39.484Z,14.80
2023-04-07T15:12:07.389Z,16.00
2023-04-07T15:14:35.381Z,14.70
2023-04-07T15:17:03.315Z,16.10
2023-04-07T15:19:31.337Z,16.20
2023-04-07T15:21:59.248Z,14.70
2023-04-07T15:24:28.527Z,15.60
2023-04-07T15:26:56.428Z,14.40
2023-04-07T15:29:24.275Z,15.20
2023-04-07T15:31:52.318Z,15.80
2023-04-07T15:34:20.252Z,15.40
2023-04-07T15:36:48.102Z,15.10
2023-04-07T15:39:16.860Z,14.50
2023-04-07T15:41:46.079Z,14.60
2023-04-07T15:44:19.287Z,14.60
2023-04-07T15:46:47.336Z,14.10
2023-04-07T15:49:19.978Z,15.50
2023-04-07T15:51:48.020Z,14.00
2023-04-07T15:54:16.119Z,15.10
2023-04-07T15:56:45.362Z,14.00
2023-04-07T15:59:13.597Z,15.50
2023-04-07T16:01:41.640Z,14.00
2023-04-07T16:04:09.664Z,13.90
2023-04-07T16:06:37.733Z,14.30
2023-04-07T16:09:05.975Z,14.50
2023-04-07T16:11:33.866Z,13.70
2023-04-07T16:14:03.249Z,13.80
2023-04-07T16:16:35.888Z,13.70
2023-04-07T16:19:03.880Z,13.70
2023-04-07T16:21:32.388Z,13.70
2023-04-07T16:24:00.310Z,14.90
2023-04-07T16:26:28.202Z,13.50
2023-04-07T16:28:56.062Z,14.10
2023-04-07T16:31:25.377Z,14.30
2023-04-07T16:33:53.273Z,13.30
2023-04-07T16:36:21.204Z,14.50
2023-04-07T16:38:50.934Z,13.80
2023-04-07T16:41:18.934Z,13.10
2023-04-07T16:43:47.207Z,13.00
2023-04-07T16:46:15.357Z,12.90
2023-04-07T16:48:44.635Z,12.90
2023-04-07T16:51:17.446Z,13.80
2023-04-07T16:53:45.646Z,13.10
2023-04-07T16:56:17.364Z,12.80
2023-04-07T16:58:45.298Z,12.80
2023-04-07T17:01:13.275Z,14.50
2023-04-07T17:03:41.624Z,12.70
2023-04-07T17:06:11.106Z,12.70
2023-04-07T17:08:40.101Z,12.60
2023-04-07T17:11:08.798Z,13.70
2023-04-07T17:13:37.565Z,12.40
2023-04-07T17:16:06.007Z,12.40
2023-04-07T17:18:34.599Z,12.30
2023-04-07T17:21:02.472Z,13.30
2023-04-07T17:23:31.765Z,12.10
2023-04-07T17:25:59.653Z,12.10
2023-04-07T17:28:29.820Z,12.00
2023-04-07T17:30:58.448Z,11.90
2023-04-07T17:33:26.976Z,13.10
2023-04-07T17:35:56.000Z,11.80
2023-04-07T17:38:24.033Z,11.70
2023-04-07T17:40:59.386Z,11.60
2023-04-07T17:43:27.267Z,11.80
2023-04-07T17:45:55.358Z,12.30
2023-04-07T17:48:23.358Z,12.20
2023-04-07T17:50:51.779Z,12.20
2023-04-07T17:53:20.620Z,11.10
2023-04-07T17:55:48.515Z,11.10
2023-04-07T17:58:19.981Z,10.90
2023-04-07T18:00:48.176Z,12.60
2023-04-07T18:03:16.581Z,10.70
2023-04-07T18:05:45.030Z,10.60
2023-04-07T18:08:13.169Z,10.50
2023-04-07T18:10:41.385Z,11.40
2023-04-07T18:13:09.306Z,10.60
2023-04-07T18:15:38.582Z,10.10
2023-04-07T18:18:06.727Z,10.00
2023-04-07T18:20:36.084Z,9.90
2023-04-07T18:23:04.054Z,11.50
2023-04-07T18:25:31.986Z,9.70
2023-04-07T18:28:01.821Z,9.60
2023-04-07T18:30:29.791Z,9.50
2023-04-07T18:32:59.257Z,9.40
2023-04-07T18:35:28.448Z,9.30
2023-04-07T18:37:58.948Z,9.20
2023-04-07T18:40:29.853Z,10.40
2023-04-07T18:42:57.999Z,8.90
2023-04-07T18:45:26.070Z,8.80
2023-04-07T18:47:54.147Z,8.90
2023-04-07T18:50:24.484Z,8.60
2023-04-07T18:52:52.400Z,8.50
2023-04-07T18:55:20.707Z,8.40
2023-04-07T18:57:48.797Z,8.30
2023-04-07T19:00:17.834Z,9.10
2023-04-07T19:02:46.000Z,8.00
2023-04-07T19:05:14.212Z,8.00
2023-04-07T19:07:43.479Z,7.90
2023-04-07T19:10:11.532Z,7.80
2023-04-07T19:12:39.956Z,8.60
2023-04-07T19:15:09.143Z,7.70
2023-04-07T19:17:37.769Z,7.70
2023-04-07T19:20:06.699Z,7.60
2023-04-07T19:22:34.645Z,7.60
2023-04-07T19:25:03.932Z,9.00
2023-04-07T19:27:32.331Z,7.50
2023-04-07T19:30:00.332Z,7.60
2023-04-07T19:32:28.306Z,7.70
2023-04-07T19:34:56.302Z,7.60
2023-04-07T19:37:24.208Z,7.70
2023-04-07T19:40:02.240Z,7.90
2023-04-07T19:42:32.825Z,7.70
2023-04-07T19:45:02.413Z,9.10
2023-04-07T19:47:30.596Z,7.80
2023-04-07T19:50:00.304Z,7.50
2023-04-07T19:52:30.034Z,7.40
2023-04-07T19:54:58.498Z,8.60
2023-04-07T19:57:27.839Z,7.30
2023-04-07T19:59:57.246Z,8.30
2023-04-07T20:02:25.523Z,7.30
2023-04-07T20:04:54.279Z,7.30
2023-04-07T20:07:22.700Z,7.00
2023-04-07T20:09:54.018Z,7.10
2023-04-07T20:12:22.073Z,7.20
2023-04-07T20:14:50.150Z,7.50
2023-04-07T20:17:19.454Z,8.50
2023-04-07T20:19:47.815Z,7.70
2023-04-07T20:22:15.819Z,6.80
2023-04-07T20:24:43.721Z,7.40
2023-04-07T20:27:11.676Z,6.80
2023-04-07T20:29:39.614Z,6.60
2023-04-07T20:32:07.694Z,6.70
2023-04-07T20:34:37.057Z,7.90
2023-04-07T20:37:04.965Z,6.20
2023-04-07T20:39:32.918Z,7.70
2023-04-07T20:42:01.704Z,7.50
2023-04-07T20:44:31.325Z,6.70
2023-04-07T20:46:59.923Z,7.00
2023-04-07T20:49:28.534Z,8.00
2023-04-07T20:51:58.116Z,7.60
2023-04-07T20:54:26.682Z,6.30
2023-04-07T20:56:55.005Z,6.00
2023-04-07T20:59:23.004Z,5.90
2023-04-07T21:01:51.635Z,5.90
2023-04-07T21:04:20.078Z,6.50
2023-04-07T21:06:48.188Z,6.20
2023-04-07T21:09:17.759Z,6.60
2023-04-07T21:11:45.902Z,5.80
2023-04-07T21:14:13.824Z,5.80
2023-04-07T21:16:41.887Z,7.50
2023-04-07T21:19:09.828Z,6.10
2023-04-07T21:21:37.686Z,6.90
2023-04-07T21:24:05.937Z,6.30
2023-04-07T21:26:35.307Z,5.60
2023-04-07T21:29:03.191Z,7.10
2023-04-07T21:31:31.537Z,5.50
2023-04-07T21:33:59.567Z,7.40
2023-04-07T21:36:27.726Z,7.00
2023-04-07T21:38:55.695Z,5.40
2023-04-07T21:41:23.614Z,5.40
2023-04-07T21:43:52.850Z,5.40
2023-04-07T21:46:20.894Z,5.30
2023-04-07T21:48:49.446Z,5.30
2023-04-07T21:51:17.550Z,6.10
2023-04-07T21:53:45.450Z,6.00
2023-04-07T21:56:13.773Z,5.20
2023-04-07T21:58:42.856Z,5.20
2023-04-07T22:01:12.139Z,5.40
2023-04-07T22:03:40.761Z,6.30
2023-04-07T22:06:08.784Z,5.20
2023-04-07T22:08:36.704Z,6.70
2023-04-07T22:11:04.811Z,5.20
2023-04-07T22:13:32.714Z,5.20
2023-04-07T22:16:02.137Z,6.40
2023-04-07T22:18:31.643Z,5.30
2023-04-07T22:20:59.679Z,5.40
2023-04-07T22:23:27.807Z,6.50
2023-04-07T22:25:56.069Z,5.50
2023-04-07T22:28:23.956Z,7.30
2023-04-07T22:30:51.853Z,5.50
2023-04-07T22:33:19.782Z,6.90
2023-04-07T22:35:49.055Z,5.70
2023-04-07T22:38:17.704Z,5.90
2023-04-07T22:40:45.958Z,5.80
2023-04-07T22:43:13.850Z,6.60
2023-04-07T22:45:41.730Z,5.80
2023-04-07T22:48:09.749Z,5.80
2023-04-07T22:50:37.741Z,6.90
2023-04-07T22:53:07.691Z,7.10
2023-04-07T22:55:36.192Z,5.90
2023-04-07T22:58:04.153Z,7.00
2023-04-07T23:00:32.097Z,6.70
2023-04-07T23:03:00.172Z,6.60
2023-04-07T23:05:28.408Z,6.00
2023-04-07T23:07:56.267Z,6.00
2023-04-07T23:10:25.724Z,6.50
2023-04-07T23:12:54.856Z,6.00
2023-04-07T23:15:22.748Z,7.60
2023-04-07T23:17:50.679Z,6.10
2023-04-07T23:20:18.847Z,6.40
2023-04-07T23:22:46.772Z,6.00
2023-04-07T23:25:14.687Z,6.40
2023-04-07T23:27:43.917Z,6.00
2023-04-07T23:30:12.872Z,7.00
2023-04-07T23:32:40.860Z,6.00
2023-04-07T23:35:09.706Z,7.40
2023-04-07T23:37:37.600Z,5.90
2023-04-07T23:40:07.625Z,6.10
2023-04-07T23:42:35.598Z,5.90
2023-04-07T23:45:05.297Z,5.90
2023-04-07T23:47:33.249Z,6.00
2023-04-07T23:50:01.167Z,6.90
2023-04-07T23:52:29.069Z,5.90
2023-04-07T23:54:56.966Z,7.50
2023-04-07T23:57:24.930Z,5.90
2023-04-07T23:59:52.798Z,5.90
